createdAt,value
2023-03-26T00:02:00.683Z,27.80
2023-03-26T00:04:29.440Z,27.80
2023-03-26T00:06:58.183Z,27.80
2023-03-26T00:09:26.932Z,27.80
2023-03-26T00:11:56.555Z,27.80
2023-03-26T00:14:25.341Z,27.80
2023-03-26T00:16:54.684Z,27.80
2023-03-26T00:19:23.822Z,27.90
2023-03-26T00:21:54.151Z,27.90
2023-03-26T00:24:30.358Z,27.90
2023-03-26T00:27:00.671Z,28.00
2023-03-26T00:29:29.392Z,28.00
2023-03-26T00:31:58.378Z,28.10
2023-03-26T00:34:27.832Z,28.10
2023-03-26T00:36:56.808Z,28.20
2023-03-26T00:39:25.501Z,28.20
2023-03-26T00:41:55.280Z,28.20
2023-03-26T00:44:24.286Z,28.30
2023-03-26T00:46:53.637Z,28.30
2023-03-26T00:49:22.341Z,28.40
2023-03-26T00:51:51.093Z,28.50
2023-03-26T00:54:20.072Z,28.50
2023-03-26T00:56:48.959Z,28.60
2023-03-26T00:59:18.044Z,28.70
2023-03-26T01:01:48.001Z,28.70
2023-03-26T01:04:28.525Z,28.80
2023-03-26T01:07:01.878Z,28.80
2023-03-26T01:09:37.588Z,28.90
2023-03-26T01:12:08.668Z,29.00
2023-03-26T01:14:37.994Z,29.10
2023-03-26T01:17:10.080Z,29.20
2023-03-26T01:20:01.244Z,29.30
2023-03-26T01:22:29.968Z,29.40
2023-03-26T01:24:58.704Z,29.50
2023-03-26T01:27:36.685Z,29.50
2023-03-26T01:30:15.139Z,29.70
2023-03-26T01:33:02.901Z,29.80
2023-03-26T01:35:51.977Z,29.90
2023-03-26T01:38:56.361Z,30.00
2023-03-26T01:42:00.730Z,30.10
2023-03-26T01:44:41.775Z,30.20
2023-03-26T01:47:13.097Z,30.20
2023-03-26T01:49:41.846Z,30.30
2023-03-26T01:52:23.248Z,30.30
2023-03-26T01:54:52.309Z,30.40
2023-03-26T01:57:23.965Z,30.50
2023-03-26T02:00:19.212Z,30.60
2023-03-26T02:03:04.452Z,30.60
2023-03-26T02:05:48.141Z,30.80
2023-03-26T02:08:25.356Z,30.80
2023-03-26T02:10:58.683Z,30.90
2023-03-26T02:13:27.707Z,31.00
2023-03-26T02:16:01.883Z,31.10
2023-03-26T02:18:37.201Z,31.20
2023-03-26T02:21:11.253Z,31.30
2023-03-26T02:23:41.983Z,31.30
2023-03-26T02:26:12.473Z,31.40
2023-03-26T02:28:41.553Z,31.50
2023-03-26T02:31:12.052Z,31.60
2023-03-26T02:33:41.156Z,31.60
2023-03-26T02:36:10.219Z,31.70
2023-03-26T02:38:39.050Z,31.90
2023-03-26T02:41:07.831Z,32.00
2023-03-26T02:43:36.660Z,32.00
2023-03-26T02:46:05.636Z,32.10
2023-03-26T02:48:37.421Z,32.20
2023-03-26T02:51:07.693Z,32.20
2023-03-26T02:53:38.405Z,32.30
2023-03-26T02:56:07.694Z,32.30
2023-03-26T02:58:36.386Z,32.30
2023-03-26T03:01:06.338Z,32.40
2023-03-26T03:03:36.320Z,32.50
2023-03-26T03:06:05.263Z,32.60
2023-03-26T03:08:35.005Z,32.80
2023-03-26T03:11:10.219Z,32.80
2023-03-26T03:13:39.031Z,32.90
2023-03-26T03:16:08.774Z,33.00
2023-03-26T03:18:38.571Z,33.10
2023-03-26T03:21:07.866Z,33.10
2023-03-26T03:23:36.882Z,33.10
2023-03-26T03:26:07.689Z,33.20
2023-03-26T03:28:36.498Z,33.30
2023-03-26T03:31:06.844Z,33.30
2023-03-26T03:33:36.724Z,33.40
2023-03-26T03:36:20.828Z,33.50
2023-03-26T03:38:52.134Z,33.60
2023-03-26T03:41:20.919Z,33.60
2023-03-26T03:43:49.714Z,33.60
2023-03-26T03:46:18.500Z,33.60
2023-03-26T03:48:50.690Z,33.70
2023-03-26T03:51:19.998Z,33.80
2023-03-26T03:53:49.020Z,33.90
2023-03-26T03:56:20.075Z,34.00
2023-03-26T03:58:49.023Z,34.00
2023-03-26T04:01:18.230Z,34.10
2023-03-26T04:03:47.204Z,34.10
2023-03-26T04:06:19.747Z,34.20
2023-03-26T04:08:48.635Z,34.20
2023-03-26T04:11:17.403Z,34.30
2023-03-26T04:13:46.917Z,34.30
2023-03-26T04:16:16.337Z,34.30
2023-03-26T04:18:47.461Z,34.30
2023-03-26T04:21:16.815Z,34.40
2023-03-26T04:23:46.206Z,34.40
2023-03-26T04:26:19.557Z,34.50
2023-03-26T04:28:54.335Z,34.50
2023-03-26T04:31:29.947Z,34.60
2023-03-26T04:34:06.524Z,34.70
2023-03-26T04:36:36.514Z,34.70
2023-03-26T04:39:06.310Z,34.80
2023-03-26T04:41:35.052Z,34.80
2023-03-26T04:44:03.894Z,34.80
2023-03-26T04:46:34.519Z,34.80
2023-03-26T04:49:03.722Z,34.80
2023-03-26T04:51:39.551Z,34.90
2023-03-26T04:54:08.997Z,34.90
2023-03-26T04:56:54.996Z,34.90
2023-03-26T04:59:31.279Z,34.90
2023-03-26T05:02:01.216Z,34.90
2023-03-26T05:04:31.530Z,34.90
2023-03-26T05:07:00.666Z,35.00
2023-03-26T05:09:29.839Z,35.00
2023-03-26T05:11:59.365Z,35.10
2023-03-26T05:14:28.060Z,35.20
2023-03-26T05:16:56.888Z,35.20
2023-03-26T05:19:25.665Z,35.40
2023-03-26T05:21:54.577Z,35.50
2023-03-26T05:24:25.570Z,35.70
2023-03-26T05:26:54.355Z,35.80
2023-03-26T05:29:25.107Z,35.90
2023-03-26T05:31:53.906Z,36.00
2023-03-26T05:34:27.354Z,36.00
2023-03-26T05:36:56.447Z,36.00
2023-03-26T05:39:27.490Z,36.00
2023-03-26T05:41:56.373Z,36.00
2023-03-26T05:44:25.132Z,36.00
2023-03-26T05:46:53.886Z,36.00
2023-03-26T05:49:22.935Z,36.00
2023-03-26T05:51:52.765Z,36.10
2023-03-26T05:54:23.135Z,36.10
2023-03-26T05:56:52.234Z,36.00
2023-03-26T05:59:21.013Z,36.00
2023-03-26T06:01:51.792Z,35.90
2023-03-26T06:04:21.061Z,35.90
2023-03-26T06:06:49.874Z,36.00
2023-03-26T06:09:19.617Z,36.10
2023-03-26T06:11:48.583Z,36.10
2023-03-26T06:14:17.988Z,36.20
2023-03-26T06:16:46.708Z,36.20
2023-03-26T06:19:15.586Z,36.20
2023-03-26T06:21:44.294Z,36.20
2023-03-26T06:24:13.129Z,36.30
2023-03-26T06:26:42.136Z,36.30
2023-03-26T06:29:11.404Z,36.30
2023-03-26T06:31:40.166Z,36.30
2023-03-26T06:34:09.500Z,36.30
2023-03-26T06:36:38.225Z,36.40
2023-03-26T06:39:07.590Z,36.50
2023-03-26T06:41:37.552Z,36.50
2023-03-26T06:44:06.260Z,36.50
2023-03-26T06:46:35.023Z,36.40
2023-03-26T06:49:04.107Z,36.40
2023-03-26T06:51:32.909Z,36.30
2023-03-26T06:54:01.796Z,36.30
2023-03-26T06:56:30.632Z,36.40
2023-03-26T06:58:59.492Z,36.40
2023-03-26T07:01:28.238Z,36.40
2023-03-26T07:03:57.183Z,36.40
2023-03-26T07:06:28.870Z,36.50
2023-03-26T07:08:58.422Z,36.50
2023-03-26T07:11:27.953Z,36.50
2023-03-26T07:14:00.499Z,36.60
2023-03-26T07:16:29.325Z,36.70
2023-03-26T07:18:58.130Z,36.70
2023-03-26T07:21:27.249Z,36.70
2023-03-26T07:23:56.710Z,36.70
2023-03-26T07:26:32.471Z,36.70
2023-03-26T07:29:14.454Z,36.70
2023-03-26T07:32:01.949Z,36.70
2023-03-26T07:34:39.509Z,36.70
2023-03-26T07:37:28.176Z,36.80
2023-03-26T07:40:09.851Z,36.80
2023-03-26T07:42:41.492Z,36.90
2023-03-26T07:45:26.100Z,36.80
2023-03-26T07:47:56.309Z,36.90
2023-03-26T07:50:26.541Z,36.80
2023-03-26T07:52:55.543Z,36.90
2023-03-26T07:55:25.564Z,36.90
2023-03-26T07:57:56.423Z,36.90
2023-03-26T08:00:35.296Z,36.90
2023-03-26T08:03:27.838Z,36.90
2023-03-26T08:06:17.404Z,36.90
2023-03-26T08:09:06.160Z,36.90
2023-03-26T08:11:36.824Z,36.90
2023-03-26T08:14:22.783Z,37.00
2023-03-26T08:17:12.152Z,37.00
2023-03-26T08:19:52.801Z,37.00
2023-03-26T08:22:28.344Z,37.00
2023-03-26T08:25:18.863Z,37.00
2023-03-26T08:27:50.642Z,37.00
2023-03-26T08:30:23.272Z,37.10
2023-03-26T08:32:59.041Z,37.10
2023-03-26T08:35:29.572Z,37.10
2023-03-26T08:37:58.771Z,37.10
2023-03-26T08:40:53.737Z,37.10
2023-03-26T08:43:46.124Z,37.00
2023-03-26T08:46:16.817Z,37.00
2023-03-26T08:48:49.991Z,37.00
2023-03-26T08:51:50.105Z,37.00
2023-03-26T08:54:36.200Z,36.90
2023-03-26T08:57:32.289Z,36.90
2023-03-26T09:00:18.262Z,36.90
2023-03-26T09:03:06.289Z,36.80
2023-03-26T09:06:03.732Z,36.80
2023-03-26T09:08:54.388Z,36.80
2023-03-26T09:12:02.594Z,36.70
2023-03-26T09:14:49.681Z,36.70
2023-03-26T09:17:38.512Z,36.70
2023-03-26T09:20:27.300Z,36.70
2023-03-26T09:23:08.099Z,36.70
2023-03-26T09:25:44.313Z,36.70
2023-03-26T09:28:45.892Z,36.70
2023-03-26T09:31:34.747Z,36.70
2023-03-26T09:34:31.034Z,36.70
2023-03-26T09:37:19.928Z,36.70
2023-03-26T09:40:16.379Z,36.70
2023-03-26T09:43:08.717Z,36.60
2023-03-26T09:46:13.076Z,36.60
2023-03-26T09:49:05.497Z,36.50
2023-03-26T09:51:38.605Z,36.50
2023-03-26T09:54:30.937Z,36.40
2023-03-26T09:57:05.086Z,36.40
2023-03-26T09:59:49.595Z,36.40
2023-03-26T10:02:46.514Z,36.30
2023-03-26T10:05:21.605Z,36.30
2023-03-26T10:07:53.234Z,36.30
2023-03-26T10:10:50.985Z,36.30
2023-03-26T10:13:40.896Z,36.20
2023-03-26T10:16:18.318Z,36.20
2023-03-26T10:19:26.300Z,36.20
2023-03-26T10:22:05.377Z,36.20
2023-03-26T10:24:50.583Z,36.10
2023-03-26T10:27:27.340Z,36.10
2023-03-26T10:30:17.224Z,36.00
2023-03-26T10:33:06.032Z,36.00
2023-03-26T10:35:54.983Z,36.00
2023-03-26T10:38:51.736Z,35.90
2023-03-26T10:41:27.495Z,35.80
2023-03-26T10:44:19.301Z,35.80
2023-03-26T10:47:09.440Z,35.70
2023-03-26T10:49:51.250Z,35.70
2023-03-26T10:52:26.422Z,35.60
2023-03-26T10:55:02.095Z,35.60
2023-03-26T10:57:51.405Z,35.60
2023-03-26T11:00:26.520Z,35.60
2023-03-26T11:03:03.077Z,35.60
2023-03-26T11:05:47.400Z,35.50
2023-03-26T11:08:31.610Z,35.40
2023-03-26T11:11:25.166Z,35.40
2023-03-26T11:14:18.984Z,35.30
2023-03-26T11:17:02.353Z,35.20
2023-03-26T11:19:40.632Z,35.10
2023-03-26T11:22:48.529Z,35.10
2023-03-26T11:25:37.102Z,35.00
2023-03-26T11:28:25.843Z,34.90
2023-03-26T11:31:17.222Z,34.80
2023-03-26T11:33:53.572Z,34.70
2023-03-26T11:36:30.857Z,34.70
2023-03-26T11:39:05.137Z,34.60
2023-03-26T11:41:34.112Z,34.60
2023-03-26T11:44:08.168Z,34.50
2023-03-26T11:46:46.851Z,34.40
2023-03-26T11:49:20.210Z,34.40
2023-03-26T11:51:50.194Z,34.30
2023-03-26T11:54:19.071Z,34.30
2023-03-26T11:57:05.754Z,34.20
2023-03-26T11:59:53.305Z,34.30
2023-03-26T12:02:38.984Z,34.20
2023-03-26T12:05:32.208Z,34.10
2023-03-26T12:08:03.284Z,34.10
2023-03-26T12:10:38.705Z,34.10
2023-03-26T12:13:24.568Z,34.00
2023-03-26T12:15:58.525Z,33.90
2023-03-26T12:18:29.494Z,33.90
2023-03-26T12:21:09.134Z,33.80
2023-03-26T12:23:40.453Z,33.80
2023-03-26T12:26:33.000Z,33.70
2023-03-26T12:29:12.952Z,33.70
2023-03-26T12:31:47.749Z,33.60
2023-03-26T12:34:19.755Z,33.60
2023-03-26T12:36:57.758Z,33.50
2023-03-26T12:40:07.821Z,33.50
2023-03-26T12:44:47.437Z,33.50
2023-03-26T12:45:24.142Z,33.50
2023-03-26T12:48:02.220Z,33.50
2023-03-26T12:50:58.339Z,33.40
2023-03-26T12:53:39.652Z,33.40
2023-03-26T12:56:09.306Z,33.40
2023-03-26T12:59:06.240Z,33.40
2023-03-26T13:01:56.895Z,33.40
2023-03-26T13:05:06.097Z,33.40
2023-03-26T13:08:08.572Z,33.40
2023-03-26T13:10:57.428Z,33.40
2023-03-26T13:13:53.790Z,33.40
2023-03-26T13:16:30.756Z,33.40
2023-03-26T13:19:06.870Z,33.40
2023-03-26T13:22:05.364Z,33.40
2023-03-26T13:24:48.142Z,33.30
2023-03-26T13:27:17.013Z,33.30
2023-03-26T13:29:58.190Z,33.20
2023-03-26T13:32:40.327Z,33.30
2023-03-26T13:35:30.639Z,33.30
2023-03-26T13:38:25.118Z,33.20
2023-03-26T13:41:17.420Z,33.20
2023-03-26T13:43:53.274Z,33.20
2023-03-26T13:46:39.361Z,33.10
2023-03-26T13:49:14.991Z,33.10
2023-03-26T13:52:01.627Z,33.10
2023-03-26T13:54:33.784Z,33.10
2023-03-26T13:57:26.825Z,33.10
2023-03-26T13:59:56.633Z,33.10
2023-03-26T14:02:32.563Z,33.00
2023-03-26T14:05:10.278Z,33.00
2023-03-26T14:07:47.758Z,32.90
2023-03-26T14:10:20.051Z,32.90
2023-03-26T14:12:56.904Z,32.90
2023-03-26T14:15:32.914Z,32.90
2023-03-26T14:18:29.648Z,32.90
2023-03-26T14:21:18.369Z,32.90
2023-03-26T14:24:08.310Z,32.80
2023-03-26T14:26:52.873Z,32.80
2023-03-26T14:29:56.880Z,32.70
2023-03-26T14:32:51.274Z,32.70
2023-03-26T14:35:55.769Z,32.70
2023-03-26T14:38:36.623Z,32.70
2023-03-26T14:41:08.328Z,32.60
2023-03-26T14:43:58.045Z,32.60
2023-03-26T14:46:42.364Z,32.50
2023-03-26T14:49:39.394Z,32.50
